sensor_id;sensor_type;location;lat;lon;timestamp;P1;durP1;ratioP1;P2;durP2;ratioP2
17261;SDS011;9873;52.236;21.002;2023-03-11T00:04:10;24.47;;;14.50;;
17261;SDS011;9873;52.236;21.002;2023-03-11T00:14:15;26.50;;;14.50;;
17261;SDS011;9873;52.236;21.002;2023-03-11T00:24:20;23.23;;;13.27;;
17261;SDS011;9873;52.236;21.002;2023-03-11T00:34:22;24.40;;;13.13;;
17261;SDS011;9873;52.236;21.002;2023-03-11T00:44:27;22.93;;;12.80;;
17261;SDS011;9873;52.236;21.002;2023-03-11T00:54:31;23.60;;;12.73;;
17261;SDS011;9873;52.236;21.002;2023-03-11T01:04:33;24.20;;;13.43;;
17261;SDS011;9873;52.236;21.002;2023-03-11T01:14:43;21.93;;;14.23;;
17261;SDS011;9873;52.236;21.002;2023-03-11T01:24:48;21.90;;;12.40;;
17261;SDS011;9873;52.236;21.002;2023-03-11T01:34:57;24.20;;;12.70;;
17261;SDS011;9873;52.236;21.002;2023-03-11T01:45:00;22.03;;;12.37;;
17261;SDS011;9873;52.236;21.002;2023-03-11T01:55:02;18.67;;;10.57;;
17261;SDS011;9873;52.236;21.002;2023-03-11T02:05:14;19.90;;;11.13;;
17261;SDS011;9873;52.236;21.002;2023-03-11T02:15:21;16.33;;;10.50;;
17261;SDS011;9873;52.236;21.002;2023-03-11T02:25:33;15.87;;;9.53;;
17261;SDS011;9873;52.236;21.002;2023-03-11T02:35:53;13.23;;;8.90;;
17261;SDS011;9873;52.236;21.002;2023-03-11T02:46:00;8.63;;;5.07;;
17261;SDS011;9873;52.236;21.002;2023-03-11T02:56:05;12.53;;;7.07;;
17261;SDS011;9873;52.236;21.002;2023-03-11T03:06:09;10.23;;;6.90;;
17261;SDS011;9873;52.236;21.002;2023-03-11T03:16:13;8.87;;;5.57;;
17261;SDS011;9873;52.236;21.002;2023-03-11T03:26:22;10.63;;;6.53;;
17261;SDS011;9873;52.236;21.002;2023-03-11T03:36:30;12.77;;;5.80;;
17261;SDS011;9873;52.236;21.002;2023-03-11T03:46:37;8.17;;;4.90;;
17261;SDS011;9873;52.236;21.002;2023-03-11T03:56:43;11.07;;;5.83;;
17261;SDS011;9873;52.236;21.002;2023-03-11T04:06:48;8.87;;;4.50;;
17261;SDS011;9873;52.236;21.002;2023-03-11T04:16:52;9.10;;;5.30;;
17261;SDS011;9873;52.236;21.002;2023-03-11T04:26:58;9.07;;;4.73;;
17261;SDS011;9873;52.236;21.002;2023-03-11T04:37:04;8.13;;;5.63;;
17261;SDS011;9873;52.236;21.002;2023-03-11T04:47:12;9.30;;;5.97;;
17261;SDS011;9873;52.236;21.002;2023-03-11T04:57:17;7.30;;;5.03;;
17261;SDS011;9873;52.236;21.002;2023-03-11T05:07:25;9.67;;;5.50;;
17261;SDS011;9873;52.236;21.002;2023-03-11T05:17:38;10.10;;;4.83;;
17261;SDS011;9873;52.236;21.002;2023-03-11T05:27:44;9.13;;;5.67;;
17261;SDS011;9873;52.236;21.002;2023-03-11T05:37:57;9.30;;;5.73;;
17261;SDS011;9873;52.236;21.002;2023-03-11T05:48:03;9.63;;;5.67;;
17261;SDS011;9873;52.236;21.002;2023-03-11T05:58:08;5.37;;;4.23;;
17261;SDS011;9873;52.236;21.002;2023-03-11T06:08:23;7.47;;;5.17;;
17261;SDS011;9873;52.236;21.002;2023-03-11T06:18:26;6.60;;;4.40;;
17261;SDS011;9873;52.236;21.002;2023-03-11T06:28:31;7.27;;;4.70;;
17261;SDS011;9873;52.236;21.002;2023-03-11T06:38:36;7.93;;;5.30;;
17261;SDS011;9873;52.236;21.002;2023-03-11T06:48:43;7.43;;;5.43;;
17261;SDS011;9873;52.236;21.002;2023-03-11T06:58:57;10.03;;;5.90;;
17261;SDS011;9873;52.236;21.002;2023-03-11T07:09:05;9.77;;;6.00;;
17261;SDS011;9873;52.236;21.002;2023-03-11T07:19:11;7.93;;;5.50;;
17261;SDS011;9873;52.236;21.002;2023-03-11T07:29:13;7.93;;;6.17;;
17261;SDS011;9873;52.236;21.002;2023-03-11T07:39:16;9.93;;;7.37;;
17261;SDS011;9873;52.236;21.002;2023-03-11T07:49:25;11.10;;;7.80;;
17261;SDS011;9873;52.236;21.002;2023-03-11T07:59:34;12.20;;;8.23;;
17261;SDS011;9873;52.236;21.002;2023-03-11T08:09:38;11.27;;;8.30;;
17261;SDS011;9873;52.236;21.002;2023-03-11T08:19:41;12.53;;;8.87;;
17261;SDS011;9873;52.236;21.002;2023-03-11T08:29:48;12.47;;;8.90;;
17261;SDS011;9873;52.236;21.002;2023-03-11T08:39:51;11.30;;;7.93;;
17261;SDS011;9873;52.236;21.002;2023-03-11T08:49:58;11.87;;;9.03;;
17261;SDS011;9873;52.236;21.002;2023-03-11T09:00:04;14.20;;;10.47;;
17261;SDS011;9873;52.236;21.002;2023-03-11T09:10:15;13.17;;;10.70;;
17261;SDS011;9873;52.236;21.002;2023-03-11T09:20:22;16.83;;;11.17;;
17261;SDS011;9873;52.236;21.002;2023-03-11T09:30:28;16.07;;;11.20;;
17261;SDS011;9873;52.236;21.002;2023-03-11T10:01:29;29.43;;;15.67;;
17261;SDS011;9873;52.236;21.002;2023-03-11T10:32:24;11.27;;;7.77;;
17261;SDS011;9873;52.236;21.002;2023-03-11T10:42:28;6.40;;;4.13;;
17261;SDS011;9873;52.236;21.002;2023-03-11T10:52:36;8.47;;;5.83;;
17261;SDS011;9873;52.236;21.002;2023-03-11T11:02:52;11.40;;;6.27;;
17261;SDS011;9873;52.236;21.002;2023-03-11T11:12:59;6.13;;;4.73;;
17261;SDS011;9873;52.236;21.002;2023-03-11T11:33:51;5.80;;;3.73;;
17261;SDS011;9873;52.236;21.002;2023-03-11T11:43:58;4.53;;;3.30;;
17261;SDS011;9873;52.236;21.002;2023-03-11T12:35:42;8.93;;;5.50;;
17261;SDS011;9873;52.236;21.002;2023-03-11T12:45:54;8.77;;;7.07;;
17261;SDS011;9873;52.236;21.002;2023-03-11T13:27:40;7.90;;;5.50;;
17261;SDS011;9873;52.236;21.002;2023-03-11T13:47:56;8.63;;;6.07;;
17261;SDS011;9873;52.236;21.002;2023-03-11T13:58:41;11.33;;;7.57;;
17261;SDS011;9873;52.236;21.002;2023-03-11T14:08:53;7.47;;;6.00;;
17261;SDS011;9873;52.236;21.002;2023-03-11T14:29:19;5.90;;;4.53;;
17261;SDS011;9873;52.236;21.002;2023-03-11T14:39:32;6.30;;;4.27;;
17261;SDS011;9873;52.236;21.002;2023-03-11T14:49:40;10.73;;;5.20;;
17261;SDS011;9873;52.236;21.002;2023-03-11T14:59:43;6.77;;;4.90;;
17261;SDS011;9873;52.236;21.002;2023-03-11T15:09:51;7.93;;;3.17;;
17261;SDS011;9873;52.236;21.002;2023-03-11T15:19:59;6.17;;;4.33;;
17261;SDS011;9873;52.236;21.002;2023-03-11T15:30:14;5.53;;;3.43;;
17261;SDS011;9873;52.236;21.002;2023-03-11T15:40:27;6.10;;;4.10;;
17261;SDS011;9873;52.236;21.002;2023-03-11T15:50:51;4.07;;;3.50;;
17261;SDS011;9873;52.236;21.002;2023-03-11T16:01:03;3.17;;;2.57;;
17261;SDS011;9873;52.236;21.002;2023-03-11T16:11:08;2.37;;;2.10;;
17261;SDS011;9873;52.236;21.002;2023-03-11T16:21:13;3.60;;;2.70;;
17261;SDS011;9873;52.236;21.002;2023-03-11T16:31:19;5.67;;;3.30;;
17261;SDS011;9873;52.236;21.002;2023-03-11T16:41:21;2.87;;;1.73;;
17261;SDS011;9873;52.236;21.002;2023-03-11T16:51:26;4.23;;;2.73;;
17261;SDS011;9873;52.236;21.002;2023-03-11T17:01:28;3.67;;;2.83;;
17261;SDS011;9873;52.236;21.002;2023-03-11T17:11:33;5.50;;;4.10;;
17261;SDS011;9873;52.236;21.002;2023-03-11T17:21:38;3.87;;;2.70;;
17261;SDS011;9873;52.236;21.002;2023-03-11T17:31:40;7.97;;;3.97;;
17261;SDS011;9873;52.236;21.002;2023-03-11T17:41:47;5.63;;;3.13;;
17261;SDS011;9873;52.236;21.002;2023-03-11T17:51:50;5.17;;;2.90;;
17261;SDS011;9873;52.236;21.002;2023-03-11T18:01:54;5.43;;;3.03;;
17261;SDS011;9873;52.236;21.002;2023-03-11T18:11:56;6.57;;;3.37;;
17261;SDS011;9873;52.236;21.002;2023-03-11T18:22:03;4.53;;;2.13;;
17261;SDS011;9873;52.236;21.002;2023-03-11T18:32:08;7.93;;;3.30;;
17261;SDS011;9873;52.236;21.002;2023-03-11T18:42:17;4.07;;;2.53;;
17261;SDS011;9873;52.236;21.002;2023-03-11T18:52:22;4.70;;;2.73;;
17261;SDS011;9873;52.236;21.002;2023-03-11T19:02:29;2.60;;;2.00;;
17261;SDS011;9873;52.236;21.002;2023-03-11T19:12:34;3.33;;;2.33;;
17261;SDS011;9873;52.236;21.002;2023-03-11T19:22:40;3.80;;;2.70;;
17261;SDS011;9873;52.236;21.002;2023-03-11T19:32:42;4.30;;;2.53;;
17261;SDS011;9873;52.236;21.002;2023-03-11T19:42:55;5.90;;;2.77;;
17261;SDS011;9873;52.236;21.002;2023-03-11T19:52:59;3.97;;;2.40;;
17261;SDS011;9873;52.236;21.002;2023-03-11T20:03:04;4.03;;;2.90;;
17261;SDS011;9873;52.236;21.002;2023-03-11T20:13:10;5.30;;;2.97;;
17261;SDS011;9873;52.236;21.002;2023-03-11T20:23:17;5.37;;;2.90;;
17261;SDS011;9873;52.236;21.002;2023-03-11T20:33:22;5.80;;;3.10;;
17261;SDS011;9873;52.236;21.002;2023-03-11T20:43:24;7.33;;;3.47;;
17261;SDS011;9873;52.236;21.002;2023-03-11T20:53:31;6.80;;;3.07;;
17261;SDS011;9873;52.236;21.002;2023-03-11T21:03:40;6.30;;;3.27;;
17261;SDS011;9873;52.236;21.002;2023-03-11T21:13:43;6.73;;;3.87;;
17261;SDS011;9873;52.236;21.002;2023-03-11T21:23:48;6.87;;;3.13;;
17261;SDS011;9873;52.236;21.002;2023-03-11T21:33:52;9.70;;;3.97;;
17261;SDS011;9873;52.236;21.002;2023-03-11T21:43:58;6.87;;;3.53;;
17261;SDS011;9873;52.236;21.002;2023-03-11T21:54:03;8.20;;;4.10;;
17261;SDS011;9873;52.236;21.002;2023-03-11T22:04:10;9.53;;;4.17;;
17261;SDS011;9873;52.236;21.002;2023-03-11T22:14:13;8.47;;;4.70;;
17261;SDS011;9873;52.236;21.002;2023-03-11T22:24:19;8.27;;;4.70;;
17261;SDS011;9873;52.236;21.002;2023-03-11T22:34:24;6.07;;;3.43;;
17261;SDS011;9873;52.236;21.002;2023-03-11T22:44:27;5.03;;;3.13;;
17261;SDS011;9873;52.236;21.002;2023-03-11T22:54:32;4.27;;;2.30;;
17261;SDS011;9873;52.236;21.002;2023-03-11T23:04:36;7.00;;;4.23;;
17261;SDS011;9873;52.236;21.002;2023-03-11T23:14:39;7.07;;;4.10;;
17261;SDS011;9873;52.236;21.002;2023-03-11T23:24:46;9.07;;;4.73;;
17261;SDS011;9873;52.236;21.002;2023-03-11T23:34:49;6.30;;;4.40;;
17261;SDS011;9873;52.236;21.002;2023-03-11T23:44:57;9.90;;;4.80;;
17261;SDS011;9873;52.236;21.002;2023-03-11T23:55:14;8.77;;;5.73;;
